createdAt,value
2023-10-16T00:00:04.670Z,36.79
2023-10-16T00:01:04.669Z,37.06
2023-10-16T00:02:05.222Z,36.95
2023-10-16T00:03:05.383Z,37.20
2023-10-16T00:04:05.747Z,37.54
2023-10-16T00:05:05.473Z,37.29
2023-10-16T00:06:04.633Z,36.82
2023-10-16T00:07:04.676Z,36.95
2023-10-16T00:08:04.588Z,36.70
2023-10-16T00:09:04.585Z,36.77
2023-10-16T00:10:05.447Z,36.99
2023-10-16T00:11:04.636Z,36.69
2023-10-16T00:12:04.583Z,36.93
2023-10-16T00:13:04.596Z,36.97
2023-10-16T00:14:04.573Z,37.11
2023-10-16T00:15:05.446Z,36.99
2023-10-16T00:16:04.588Z,36.90
2023-10-16T00:17:04.529Z,37.46
2023-10-16T00:18:04.548Z,37.34
2023-10-16T00:19:04.495Z,37.15
2023-10-16T00:20:04.519Z,36.96
2023-10-16T00:21:04.519Z,42.59
2023-10-16T00:22:04.546Z,37.77
2023-10-16T00:23:04.468Z,37.51
2023-10-16T00:24:04.710Z,43.18
2023-10-16T00:25:04.543Z,37.64
2023-10-16T00:26:04.462Z,37.57
2023-10-16T00:27:04.477Z,37.47
2023-10-16T00:28:04.479Z,37.51
2023-10-16T00:29:04.447Z,38.06
2023-10-16T00:30:04.418Z,43.41
2023-10-16T00:31:04.410Z,38.38
2023-10-16T00:32:04.423Z,38.30
2023-10-16T00:33:04.472Z,38.29
2023-10-16T00:34:04.480Z,37.87
2023-10-16T00:35:04.409Z,47.04
2023-10-16T00:36:04.370Z,37.51
2023-10-16T00:37:04.393Z,37.55
2023-10-16T00:38:04.379Z,37.64
2023-10-16T00:39:04.357Z,37.79
2023-10-16T00:40:04.366Z,37.77
2023-10-16T00:41:04.330Z,37.82
2023-10-16T00:42:04.329Z,37.82
2023-10-16T00:43:04.361Z,37.84
2023-10-16T00:44:04.317Z,37.96
2023-10-16T00:45:04.318Z,37.93
2023-10-16T00:46:04.394Z,37.85
2023-10-16T00:47:04.840Z,37.97
2023-10-16T00:48:04.300Z,37.81
2023-10-16T00:49:04.341Z,37.98
2023-10-16T00:50:04.274Z,37.79
2023-10-16T00:51:04.258Z,37.67
2023-10-16T00:52:04.327Z,37.93
2023-10-16T00:53:04.229Z,43.43
2023-10-16T00:54:04.241Z,38.06
2023-10-16T00:55:04.263Z,37.76
2023-10-16T00:56:04.209Z,37.87
2023-10-16T00:57:04.224Z,38.37
2023-10-16T00:58:04.229Z,43.81
2023-10-16T00:59:04.228Z,39.08
2023-10-16T01:00:04.188Z,56.65
2023-10-16T01:01:04.204Z,38.42
2023-10-16T01:02:04.195Z,42.66
2023-10-16T01:03:04.207Z,38.01
2023-10-16T01:04:04.171Z,38.25
2023-10-16T01:05:04.163Z,43.56
2023-10-16T01:06:04.150Z,42.08
2023-10-16T01:07:04.176Z,41.78
2023-10-16T01:24:21.435Z,42.08
2023-10-16T01:25:24.575Z,37.80
2023-10-16T01:26:21.315Z,42.15
2023-10-16T01:27:21.366Z,43.53
2023-10-16T01:28:21.334Z,38.22
2023-10-16T01:29:22.170Z,38.56
2023-10-16T01:30:21.363Z,38.30
2023-10-16T01:31:21.308Z,42.67
2023-10-16T01:32:21.271Z,39.19
2023-10-16T01:33:21.290Z,38.41
2023-10-16T01:34:22.203Z,42.99
2023-10-16T01:35:21.249Z,39.28
2023-10-16T01:36:22.285Z,38.34
2023-10-16T01:37:21.241Z,39.29
2023-10-16T01:38:21.243Z,41.93
2023-10-16T01:39:21.270Z,38.96
2023-10-16T01:40:21.222Z,43.85
2023-10-16T01:41:21.232Z,38.57
2023-10-16T01:42:21.270Z,38.48
2023-10-16T01:43:21.230Z,38.52
2023-10-16T01:44:21.178Z,38.09
2023-10-16T01:45:21.282Z,41.66
2023-10-16T01:46:21.362Z,43.98
2023-10-16T01:47:21.204Z,38.07
2023-10-16T01:48:21.193Z,43.19
2023-10-16T01:49:22.089Z,42.18
2023-10-16T01:50:21.151Z,38.83
2023-10-16T01:51:21.152Z,38.41
2023-10-16T01:52:21.122Z,45.54
2023-10-16T01:53:21.151Z,43.47
2023-10-16T01:54:21.143Z,46.05
2023-10-16T01:55:21.144Z,41.77
2023-10-16T01:56:21.101Z,41.29
2023-10-16T01:57:21.147Z,38.68
2023-10-16T01:58:21.076Z,38.60
2023-10-16T01:59:21.098Z,38.64
2023-10-16T02:00:21.145Z,44.12
2023-10-16T02:01:21.083Z,38.55
2023-10-16T02:02:21.086Z,42.93
2023-10-16T02:03:21.098Z,38.43
2023-10-16T02:04:22.108Z,44.03
2023-10-16T02:05:21.037Z,44.55
2023-10-16T02:06:21.060Z,39.29
2023-10-16T02:07:20.998Z,42.83
2023-10-16T02:08:21.050Z,42.67
2023-10-16T02:09:20.988Z,38.89
2023-10-16T02:10:20.995Z,38.87
2023-10-16T02:11:21.006Z,43.40
2023-10-16T02:12:20.987Z,42.71
2023-10-16T02:13:20.976Z,39.55
2023-10-16T02:14:20.972Z,39.19
2023-10-16T02:15:21.010Z,38.82
2023-10-16T02:16:21.000Z,49.43
2023-10-16T02:17:21.924Z,38.16
2023-10-16T02:18:20.944Z,38.96
2023-10-16T02:19:20.922Z,40.42
2023-10-16T02:20:20.925Z,48.94
2023-10-16T02:21:20.918Z,41.47
2023-10-16T02:22:20.931Z,38.13
2023-10-16T02:23:20.887Z,38.46
2023-10-16T02:24:20.912Z,49.61
2023-10-16T02:25:20.888Z,38.32
2023-10-16T02:26:20.865Z,43.77
2023-10-16T02:27:21.010Z,38.60
2023-10-16T02:28:20.995Z,38.51
2023-10-16T02:29:20.943Z,38.45
2023-10-16T02:30:20.860Z,44.99
2023-10-16T02:31:20.844Z,38.23
2023-10-16T02:32:20.855Z,38.51
2023-10-16T02:33:20.925Z,47.51
2023-10-16T02:34:20.841Z,46.50
2023-10-16T02:35:20.834Z,42.72
2023-10-16T02:36:20.819Z,54.25
2023-10-16T02:37:20.787Z,51.24
2023-10-16T02:38:20.825Z,42.42
2023-10-16T02:39:20.809Z,38.78
2023-10-16T02:40:20.765Z,38.14
2023-10-16T02:41:20.749Z,38.39
2023-10-16T02:42:21.228Z,44.32
2023-10-16T02:43:21.608Z,45.46
2023-10-16T02:44:20.761Z,56.09
2023-10-16T02:45:20.772Z,39.41
2023-10-16T02:46:21.612Z,38.85
2023-10-16T02:47:21.724Z,45.16
2023-10-16T02:48:20.740Z,50.24
2023-10-16T02:49:20.688Z,44.06
2023-10-16T02:50:20.730Z,54.37
2023-10-16T02:51:20.776Z,48.32
2023-10-16T02:52:20.728Z,43.30
2023-10-16T02:53:21.666Z,45.00
2023-10-16T02:54:20.700Z,49.57
2023-10-16T02:55:20.664Z,54.91
2023-10-16T02:56:20.667Z,38.57
2023-10-16T02:57:20.638Z,42.27
2023-10-16T02:58:20.629Z,49.23
2023-10-16T02:59:20.609Z,44.56
2023-10-16T03:00:20.652Z,38.86
2023-10-16T03:01:20.758Z,43.27
2023-10-16T03:02:20.699Z,54.89
2023-10-16T03:03:20.734Z,52.22
2023-10-16T03:04:20.594Z,38.76
2023-10-16T03:05:20.602Z,47.44
2023-10-16T03:06:20.635Z,55.36
2023-10-16T03:07:20.586Z,51.86
2023-10-16T03:08:20.561Z,46.68
2023-10-16T03:09:20.606Z,48.24
2023-10-16T03:10:20.534Z,46.08
2023-10-16T03:11:20.527Z,53.63
2023-10-16T03:12:20.554Z,42.88
2023-10-16T03:13:20.523Z,44.24
2023-10-16T03:14:20.545Z,53.26
2023-10-16T03:15:20.524Z,45.85
2023-10-16T03:16:20.545Z,47.07
2023-10-16T03:17:20.527Z,55.13
2023-10-16T03:18:20.530Z,49.08
2023-10-16T03:21:27.770Z,46.85
2023-10-16T03:22:27.093Z,51.68
2023-10-16T03:23:27.092Z,47.53
2023-10-16T03:24:28.443Z,53.18
2023-10-16T03:25:28.219Z,53.05
2023-10-16T03:26:28.814Z,60.72
2023-10-16T03:27:28.214Z,58.18
2023-10-16T03:28:28.198Z,49.49
2023-10-16T03:29:28.165Z,58.94
2023-10-16T03:30:28.327Z,47.06
2023-10-16T03:31:29.256Z,57.96
2023-10-16T03:32:28.184Z,57.40
2023-10-16T03:33:28.184Z,55.93
2023-10-16T03:34:28.128Z,48.75
2023-10-16T03:35:28.145Z,59.98
2023-10-16T03:36:28.161Z,52.81
2023-10-16T03:37:28.117Z,55.52
2023-10-16T03:38:28.173Z,53.10
2023-10-16T03:39:28.105Z,62.65
2023-10-16T03:40:28.109Z,55.09
2023-10-16T03:41:28.085Z,54.85
2023-10-16T03:42:28.786Z,58.16
2023-10-16T03:43:28.102Z,51.55
2023-10-16T03:44:28.305Z,60.61
2023-10-16T03:45:28.223Z,43.29
2023-10-16T03:46:28.860Z,57.46
2023-10-16T03:47:29.069Z,49.54
2023-10-16T04:05:14.798Z,36.39
2023-10-16T04:06:14.753Z,35.25
2023-10-16T04:07:14.789Z,46.21
2023-10-16T04:08:14.761Z,41.98
2023-10-16T04:09:14.843Z,43.67
2023-10-16T04:10:14.723Z,50.25
2023-10-16T04:11:15.906Z,46.21
2023-10-16T04:12:15.882Z,42.78
2023-10-16T04:13:15.844Z,45.28
2023-10-16T04:14:15.972Z,46.66
2023-10-16T04:15:15.869Z,45.13
2023-10-16T04:16:15.830Z,47.00
2023-10-16T04:17:15.809Z,52.66
2023-10-16T04:18:15.814Z,46.83
2023-10-16T04:19:15.832Z,48.57
2023-10-16T04:20:15.799Z,48.62
2023-10-16T04:21:15.929Z,54.51
2023-10-16T04:22:15.855Z,47.48
2023-10-16T04:23:15.765Z,43.11
2023-10-16T04:24:16.747Z,53.77
2023-10-16T04:25:16.388Z,50.35
2023-10-16T04:26:15.732Z,54.45
2023-10-16T04:27:16.047Z,44.55
2023-10-16T04:28:15.729Z,53.85
2023-10-16T04:29:16.450Z,50.80
2023-10-16T04:30:15.784Z,52.53
2023-10-16T04:31:15.739Z,52.97
2023-10-16T04:32:16.525Z,47.94
2023-10-16T04:33:15.696Z,52.65
2023-10-16T04:34:15.732Z,52.91
2023-10-16T04:35:15.736Z,59.56
2023-10-16T04:36:15.678Z,51.86
2023-10-16T04:37:15.704Z,49.47
2023-10-16T04:38:16.363Z,52.90
2023-10-16T04:39:15.657Z,50.43
2023-10-16T04:40:15.665Z,54.44
2023-10-16T04:41:15.630Z,49.28
2023-10-16T04:42:15.624Z,55.50
2023-10-16T04:43:15.624Z,58.79
2023-10-16T04:44:15.606Z,53.68
2023-10-16T04:45:16.376Z,49.86
2023-10-16T04:46:15.726Z,51.04
2023-10-16T04:47:15.616Z,55.97
2023-10-16T04:48:15.580Z,57.80
2023-10-16T04:49:15.656Z,53.73
2023-10-16T04:50:15.573Z,55.42
2023-10-16T04:51:34.080Z,53.10
2023-10-16T04:52:17.592Z,57.47
2023-10-16T04:53:15.556Z,50.51
2023-10-16T04:54:15.542Z,52.92
2023-10-16T04:55:15.530Z,49.75
2023-10-16T04:56:15.544Z,57.47
2023-10-16T04:57:15.600Z,54.91
2023-10-16T04:58:16.478Z,54.59
2023-10-16T04:59:15.507Z,54.24
2023-10-16T05:00:15.531Z,49.57
2023-10-16T05:01:15.586Z,51.31
2023-10-16T05:02:15.524Z,57.62
2023-10-16T05:03:15.618Z,53.09
2023-10-16T05:04:15.553Z,55.53
2023-10-16T05:05:48.408Z,56.10
2023-10-16T05:06:16.985Z,53.11
2023-10-16T05:07:15.448Z,50.33
2023-10-16T05:08:15.496Z,57.01
2023-10-16T05:09:47.963Z,55.77
2023-10-16T05:10:15.510Z,58.57
2023-10-16T05:11:15.436Z,60.39
2023-10-16T05:12:15.427Z,54.47
2023-10-16T05:13:16.409Z,55.20
2023-10-16T05:14:15.399Z,56.70
2023-10-16T05:15:15.400Z,53.74
2023-10-16T05:16:15.441Z,59.78
2023-10-16T05:17:15.354Z,58.87
2023-10-16T05:18:15.377Z,53.35
2023-10-16T05:19:15.360Z,58.48
2023-10-16T05:20:15.339Z,56.79
2023-10-16T05:21:15.338Z,55.42
2023-10-16T05:22:15.345Z,60.65
2023-10-16T05:23:15.320Z,55.69
2023-10-16T05:24:15.341Z,58.20
2023-10-16T05:25:49.582Z,59.22
2023-10-16T05:26:15.332Z,58.28
2023-10-16T05:27:15.354Z,60.38
2023-10-16T05:28:15.281Z,60.08
2023-10-16T05:29:15.273Z,57.03
2023-10-16T05:30:15.308Z,61.39
2023-10-16T05:31:15.321Z,58.55
2023-10-16T05:32:15.243Z,50.80
2023-10-16T05:33:15.288Z,55.39
2023-10-16T05:34:15.229Z,59.37
2023-10-16T05:35:15.280Z,60.64
2023-10-16T05:36:15.212Z,58.80
2023-10-16T05:37:15.207Z,55.45
2023-10-16T05:38:15.204Z,57.67
2023-10-16T05:39:15.165Z,59.49
2023-10-16T05:40:15.199Z,54.59
2023-10-16T05:41:15.186Z,61.82
2023-10-16T05:42:15.178Z,58.35
2023-10-16T05:43:15.224Z,50.36
2023-10-16T05:44:16.044Z,47.75
2023-10-16T05:45:16.203Z,57.01
2023-10-16T05:46:15.263Z,58.47
2023-10-16T05:47:19.050Z,59.86
2023-10-16T05:48:17.033Z,58.85
2023-10-16T05:49:15.137Z,54.35
2023-10-16T05:50:15.154Z,58.32
2023-10-16T05:51:15.160Z,58.59
2023-10-16T05:52:15.110Z,55.24
2023-10-16T05:53:15.080Z,59.26
2023-10-16T05:54:15.096Z,55.10
2023-10-16T05:55:15.070Z,55.54
2023-10-16T05:56:15.506Z,58.45
2023-10-16T05:57:15.106Z,55.75
2023-10-16T05:58:15.118Z,56.92
2023-10-16T05:59:15.046Z,42.04
2023-10-16T06:00:15.025Z,55.80
2023-10-16T06:01:16.082Z,59.75
2023-10-16T06:02:15.050Z,48.52
2023-10-16T06:03:15.165Z,53.64
2023-10-16T06:04:15.272Z,52.69
2023-10-16T06:05:15.216Z,53.44
2023-10-16T06:06:14.981Z,57.50
2023-10-16T06:07:15.049Z,58.17
2023-10-16T06:08:14.972Z,54.28
2023-10-16T06:09:14.979Z,58.37
2023-10-16T06:10:14.948Z,53.54
2023-10-16T06:11:14.953Z,57.55
2023-10-16T06:12:14.947Z,53.66
2023-10-16T06:13:16.323Z,56.01
2023-10-16T06:14:14.944Z,60.26
2023-10-16T06:15:14.927Z,60.70
2023-10-16T06:16:14.991Z,57.59
2023-10-16T06:17:14.928Z,57.96
2023-10-16T06:18:14.951Z,51.94
2023-10-16T06:19:14.960Z,58.03
2023-10-16T06:20:14.925Z,49.15
2023-10-16T06:21:14.880Z,51.95
2023-10-16T06:22:14.866Z,54.80
2023-10-16T06:23:14.891Z,57.03
2023-10-16T06:24:14.868Z,53.38
2023-10-16T06:25:14.931Z,54.28
2023-10-16T06:26:48.020Z,55.07
2023-10-16T06:27:14.830Z,61.54
2023-10-16T06:28:14.916Z,58.97
2023-10-16T06:29:16.406Z,53.31
2023-10-16T06:30:14.820Z,58.85
2023-10-16T06:31:14.874Z,59.25
2023-10-16T06:32:14.809Z,47.69
2023-10-16T06:33:14.787Z,57.00
2023-10-16T06:34:14.772Z,47.29
2023-10-16T06:35:14.783Z,56.22
2023-10-16T06:36:14.833Z,52.03
2023-10-16T06:37:14.780Z,52.08
2023-10-16T06:38:15.746Z,57.57
2023-10-16T06:39:14.736Z,52.35
2023-10-16T06:40:14.769Z,59.05
2023-10-16T06:41:15.409Z,59.29
2023-10-16T06:42:14.801Z,58.89
2023-10-16T06:43:14.756Z,55.01
2023-10-16T06:44:15.404Z,57.36
2023-10-16T06:45:14.743Z,57.32
2023-10-16T06:46:14.766Z,59.12
2023-10-16T06:47:15.686Z,59.54
2023-10-16T06:48:14.721Z,54.68
2023-10-16T06:49:14.671Z,56.64
2023-10-16T06:50:14.794Z,58.70
2023-10-16T06:51:14.749Z,50.15
2023-10-16T06:52:14.746Z,46.03
2023-10-16T06:53:14.637Z,60.29
2023-10-16T06:54:14.653Z,48.27
2023-10-16T06:55:14.652Z,55.90
2023-10-16T06:56:14.655Z,55.01
2023-10-16T06:57:14.668Z,54.13
2023-10-16T06:58:14.802Z,51.69
2023-10-16T06:59:14.612Z,55.32
2023-10-16T07:00:14.607Z,51.11
2023-10-16T07:01:14.742Z,53.73
2023-10-16T07:02:14.584Z,59.16
2023-10-16T07:03:14.699Z,45.74
2023-10-16T07:04:15.196Z,49.60
2023-10-16T07:05:14.532Z,60.00
2023-10-16T07:06:15.085Z,57.31
2023-10-16T07:07:14.533Z,50.99
2023-10-16T07:08:14.522Z,54.42
2023-10-16T07:09:14.580Z,45.32
2023-10-16T07:10:15.130Z,57.60
2023-10-16T07:11:14.489Z,59.26
2023-10-16T07:12:15.158Z,57.61
2023-10-16T07:13:14.514Z,53.73
2023-10-16T07:14:14.516Z,56.65
2023-10-16T07:15:14.532Z,48.80
2023-10-16T07:16:14.631Z,55.56
2023-10-16T07:17:14.458Z,50.28
2023-10-16T07:18:14.475Z,58.06
2023-10-16T07:19:14.475Z,56.86
2023-10-16T07:20:14.490Z,52.73
2023-10-16T07:21:14.428Z,50.57
2023-10-16T07:22:14.464Z,61.29
2023-10-16T07:23:14.440Z,57.35
2023-10-16T07:24:14.427Z,52.42
2023-10-16T07:25:14.453Z,46.42
2023-10-16T07:26:14.399Z,58.74
2023-10-16T07:27:14.392Z,51.97
2023-10-16T07:28:14.401Z,53.64
2023-10-16T07:29:14.348Z,47.81
2023-10-16T07:30:14.348Z,54.77
2023-10-16T07:31:14.411Z,55.66
2023-10-16T07:32:14.351Z,56.06
2023-10-16T07:33:15.315Z,58.85
2023-10-16T07:34:14.433Z,53.72
2023-10-16T07:35:14.347Z,54.49
2023-10-16T07:36:14.422Z,57.87
2023-10-16T07:37:14.308Z,57.14
2023-10-16T07:38:14.281Z,54.76
2023-10-16T07:39:14.283Z,52.66
2023-10-16T07:40:14.284Z,58.66
2023-10-16T07:41:14.416Z,52.03
2023-10-16T07:42:14.285Z,49.34
2023-10-16T07:43:14.251Z,56.61
2023-10-16T07:44:14.241Z,61.32
2023-10-16T07:45:14.259Z,50.41
2023-10-16T07:46:14.435Z,56.12
2023-10-16T07:47:14.244Z,47.69
2023-10-16T07:48:14.210Z,53.49
2023-10-16T07:49:14.232Z,57.33
2023-10-16T07:50:14.188Z,53.99
2023-10-16T07:51:14.180Z,51.74
2023-10-16T07:52:14.279Z,58.67
2023-10-16T07:53:14.176Z,56.85
2023-10-16T07:54:14.209Z,55.78
2023-10-16T07:55:14.170Z,59.73
2023-10-16T07:56:14.165Z,58.01
2023-10-16T07:57:14.175Z,59.87
2023-10-16T07:58:14.137Z,51.74
2023-10-16T07:59:14.139Z,52.92
2023-10-16T08:00:47.122Z,56.33
2023-10-16T08:01:14.197Z,55.01
2023-10-16T08:02:14.091Z,56.70
2023-10-16T08:03:14.145Z,52.88
2023-10-16T08:04:14.219Z,55.06
2023-10-16T08:05:14.661Z,56.56
2023-10-16T08:06:14.075Z,57.51
2023-10-16T08:07:14.063Z,55.10
2023-10-16T08:08:14.054Z,56.59
2023-10-16T08:09:14.095Z,59.13
2023-10-16T08:10:14.024Z,55.91
2023-10-16T08:11:14.025Z,56.49
2023-10-16T08:12:14.165Z,57.21
2023-10-16T08:13:13.996Z,60.80
2023-10-16T08:14:14.005Z,62.08
2023-10-16T08:15:14.053Z,59.13
2023-10-16T08:16:14.148Z,51.83
2023-10-16T08:17:14.102Z,56.29
2023-10-16T08:18:14.046Z,61.46
2023-10-16T08:19:14.028Z,58.89
2023-10-16T08:20:13.973Z,55.60
2023-10-16T08:21:13.974Z,60.33
2023-10-16T08:22:13.952Z,61.60
2023-10-16T08:23:13.928Z,44.58
2023-10-16T08:24:15.646Z,59.70
2023-10-16T08:25:14.998Z,57.11
2023-10-16T08:26:13.921Z,58.84
2023-10-16T08:27:13.889Z,51.59
2023-10-16T08:28:13.897Z,55.45
2023-10-16T08:29:13.911Z,58.00
2023-10-16T08:30:13.918Z,57.30
2023-10-16T08:31:13.907Z,60.67
2023-10-16T08:32:13.980Z,57.84
2023-10-16T08:33:13.855Z,55.90
2023-10-16T08:34:13.847Z,60.77
2023-10-16T08:35:13.880Z,61.88
2023-10-16T08:36:13.836Z,51.00
2023-10-16T08:37:13.813Z,60.76
2023-10-16T08:38:13.816Z,59.42
2023-10-16T08:39:14.545Z,57.23
2023-10-16T08:40:13.845Z,54.90
2023-10-16T08:41:13.809Z,55.59
2023-10-16T08:42:13.779Z,53.91
2023-10-16T08:43:13.769Z,60.27
2023-10-16T08:44:13.768Z,61.60
2023-10-16T08:45:13.747Z,54.23
2023-10-16T08:46:14.490Z,58.69
2023-10-16T08:47:14.695Z,61.19
2023-10-16T08:48:14.701Z,59.64
2023-10-16T08:49:13.785Z,56.41
2023-10-16T08:50:13.697Z,58.85
2023-10-16T08:51:13.738Z,60.86
2023-10-16T08:52:13.712Z,61.53
2023-10-16T08:53:13.719Z,56.15
2023-10-16T08:54:13.670Z,45.41
2023-10-16T08:55:14.702Z,60.77
2023-10-16T08:56:14.685Z,57.44
2023-10-16T08:57:13.777Z,56.19
2023-10-16T08:58:13.720Z,55.27
2023-10-16T08:59:13.667Z,54.99
2023-10-16T09:00:15.252Z,54.52
2023-10-16T09:01:13.711Z,55.76
2023-10-16T09:02:13.646Z,56.62
2023-10-16T09:03:13.729Z,58.03
2023-10-16T09:04:15.209Z,60.79
2023-10-16T09:05:14.629Z,58.98
2023-10-16T09:06:13.601Z,59.82
2023-10-16T09:07:13.631Z,56.85
2023-10-16T09:08:13.559Z,61.52
2023-10-16T09:09:13.607Z,56.94
2023-10-16T09:10:13.563Z,60.29
2023-10-16T09:11:14.462Z,59.57
2023-10-16T09:12:13.564Z,56.11
2023-10-16T09:13:13.528Z,53.62
2023-10-16T09:14:13.518Z,56.91
2023-10-16T09:15:13.551Z,59.34
2023-10-16T09:16:13.562Z,57.77
2023-10-16T09:17:13.502Z,51.04
2023-10-16T09:18:13.466Z,54.90
2023-10-16T09:19:13.488Z,59.82
2023-10-16T09:20:13.513Z,57.41
2023-10-16T09:21:13.456Z,58.20
2023-10-16T09:22:13.464Z,57.56
2023-10-16T09:23:13.455Z,57.83
2023-10-16T09:24:13.476Z,53.89
2023-10-16T09:25:19.315Z,59.99
2023-10-16T09:26:14.416Z,57.33
2023-10-16T09:27:13.440Z,58.59
2023-10-16T09:28:13.401Z,55.49
2023-10-16T09:29:13.400Z,58.95
2023-10-16T09:30:13.477Z,57.65
2023-10-16T09:31:13.533Z,56.40
2023-10-16T09:32:13.434Z,49.99
2023-10-16T09:33:13.458Z,58.35
2023-10-16T09:34:13.353Z,59.00
2023-10-16T09:35:13.345Z,53.88
2023-10-16T09:36:13.349Z,54.05
2023-10-16T09:37:13.401Z,53.25
2023-10-16T09:38:13.321Z,57.56
2023-10-16T09:39:13.297Z,48.27
2023-10-16T09:40:23.552Z,57.97
2023-10-16T09:41:15.290Z,56.95
2023-10-16T09:42:13.498Z,55.01
2023-10-16T09:43:13.294Z,55.90
2023-10-16T09:44:13.266Z,58.03
2023-10-16T09:45:13.267Z,56.98
2023-10-16T09:46:13.322Z,51.42
2023-10-16T09:47:13.271Z,58.10
2023-10-16T09:48:13.292Z,53.90
2023-10-16T09:49:13.269Z,56.60
2023-10-16T09:50:13.265Z,53.39
2023-10-16T09:51:13.239Z,55.31
2023-10-16T09:52:13.240Z,60.57
2023-10-16T09:53:13.270Z,57.77
2023-10-16T09:54:13.219Z,59.18
2023-10-16T09:55:13.235Z,57.34
2023-10-16T09:56:13.306Z,55.41
2023-10-16T09:57:13.206Z,55.59
2023-10-16T09:58:13.203Z,56.85
2023-10-16T09:59:13.187Z,54.73
2023-10-16T10:00:13.184Z,57.84
2023-10-16T10:01:13.193Z,57.44
2023-10-16T10:02:13.170Z,57.88
2023-10-16T10:03:13.254Z,55.96
2023-10-16T10:04:13.223Z,58.11
2023-10-16T10:05:13.162Z,57.95
2023-10-16T10:06:13.122Z,56.63
2023-10-16T10:07:13.101Z,59.54
2023-10-16T10:08:13.126Z,53.26
2023-10-16T10:09:13.246Z,51.71
2023-10-16T10:10:13.199Z,56.00
2023-10-16T10:11:22.648Z,57.82
2023-10-16T10:12:15.381Z,47.61
2023-10-16T10:13:13.042Z,58.97
2023-10-16T10:14:13.042Z,53.44
2023-10-16T10:15:13.067Z,56.79
2023-10-16T10:16:13.141Z,54.65
2023-10-16T10:17:13.010Z,57.04
2023-10-16T10:18:13.043Z,54.05
2023-10-16T10:19:13.058Z,49.29
2023-10-16T10:20:13.004Z,49.80
2023-10-16T10:21:13.017Z,56.41
2023-10-16T10:22:13.004Z,49.92
2023-10-16T10:23:13.178Z,56.79
2023-10-16T10:24:13.013Z,55.80
2023-10-16T10:25:19.802Z,58.20
2023-10-16T10:26:14.940Z,52.12
2023-10-16T10:27:13.079Z,56.14
2023-10-16T10:28:13.036Z,49.97
2023-10-16T10:29:13.092Z,52.27
2023-10-16T10:30:12.954Z,53.00
2023-10-16T10:31:13.049Z,47.24
2023-10-16T10:32:12.899Z,53.33
2023-10-16T10:33:12.990Z,57.40
2023-10-16T10:34:12.939Z,49.75
2023-10-16T10:35:12.947Z,56.09
2023-10-16T10:36:12.891Z,54.87
2023-10-16T10:37:12.934Z,49.74
2023-10-16T10:38:12.896Z,58.43
2023-10-16T10:39:12.901Z,49.51
2023-10-16T10:40:12.917Z,53.95
2023-10-16T10:41:12.875Z,45.94
2023-10-16T10:42:14.776Z,51.98
2023-10-16T10:43:13.899Z,54.46
2023-10-16T10:44:15.052Z,54.79
2023-10-16T10:45:13.826Z,55.83
2023-10-16T10:46:12.892Z,58.02
2023-10-16T10:47:12.794Z,57.34
2023-10-16T10:48:13.686Z,53.71
2023-10-16T10:49:12.807Z,53.75
2023-10-16T10:50:12.810Z,50.86
2023-10-16T10:51:12.829Z,52.32
2023-10-16T10:52:12.847Z,59.13
2023-10-16T10:53:20.116Z,51.04
2023-10-16T10:54:15.069Z,55.32
2023-10-16T10:55:12.767Z,52.77
2023-10-16T10:56:12.736Z,56.48
2023-10-16T10:57:12.728Z,50.57
2023-10-16T10:58:12.766Z,52.39
2023-10-16T10:59:15.781Z,54.24
2023-10-16T11:00:12.695Z,52.96
2023-10-16T11:01:12.783Z,58.41
2023-10-16T11:02:13.315Z,47.03
2023-10-16T11:03:13.701Z,50.19
2023-10-16T11:04:12.726Z,54.54
2023-10-16T11:05:13.534Z,57.50
2023-10-16T11:06:44.713Z,51.08
2023-10-16T11:07:12.759Z,51.58
2023-10-16T11:08:15.238Z,60.23
2023-10-16T11:09:12.649Z,57.39
2023-10-16T11:13:10.665Z,51.11
2023-10-16T11:14:11.139Z,52.35
2023-10-16T11:15:11.264Z,53.57
2023-10-16T11:16:11.278Z,48.02
2023-10-16T11:17:11.186Z,52.22
2023-10-16T11:18:11.457Z,53.70
2023-10-16T11:19:11.144Z,58.56
2023-10-16T11:20:11.140Z,47.56
2023-10-16T11:21:11.159Z,56.22
2023-10-16T11:22:11.806Z,55.06
2023-10-16T11:23:11.173Z,45.61
2023-10-16T11:24:11.160Z,47.45
2023-10-16T11:25:11.085Z,56.91
2023-10-16T11:26:11.124Z,49.57
2023-10-16T11:27:11.218Z,56.86
2023-10-16T11:28:11.148Z,52.55
2023-10-16T11:29:11.629Z,52.15
2023-10-16T11:30:11.544Z,49.64
2023-10-16T11:31:13.087Z,55.64
2023-10-16T11:32:43.690Z,48.23
2023-10-16T11:33:11.296Z,57.64
2023-10-16T11:34:43.688Z,48.08
2023-10-16T11:35:10.984Z,52.26
2023-10-16T11:36:11.778Z,57.17
2023-10-16T11:37:11.070Z,54.01
2023-10-16T11:38:10.927Z,55.81
2023-10-16T11:39:10.957Z,46.21
2023-10-16T11:40:10.927Z,57.88
2023-10-16T11:41:43.671Z,56.49
2023-10-16T11:42:11.678Z,50.06
2023-10-16T11:43:10.931Z,46.71
2023-10-16T11:44:10.905Z,55.51
2023-10-16T11:45:10.892Z,55.19
2023-10-16T11:46:11.731Z,52.01
2023-10-16T11:47:10.901Z,55.67
2023-10-16T11:48:10.921Z,52.28
2023-10-16T11:49:10.884Z,51.77
2023-10-16T11:50:10.850Z,54.06
2023-10-16T11:51:10.846Z,55.74
2023-10-16T11:52:10.879Z,56.05
2023-10-16T11:53:10.834Z,54.89
2023-10-16T11:54:10.819Z,51.59
2023-10-16T11:55:11.005Z,58.70
2023-10-16T11:56:10.800Z,56.32
2023-10-16T11:57:10.807Z,46.47
2023-10-16T11:58:10.821Z,46.67
2023-10-16T11:59:10.811Z,55.72
2023-10-16T12:00:42.757Z,56.45
2023-10-16T12:01:28.144Z,53.84
2023-10-16T12:02:12.826Z,56.02
2023-10-16T12:03:10.838Z,53.42
2023-10-16T12:04:10.859Z,56.86
2023-10-16T12:05:10.768Z,57.50
2023-10-16T12:06:10.733Z,57.61
2023-10-16T12:07:10.815Z,56.10
2023-10-16T12:08:10.734Z,57.16
2023-10-16T12:09:10.706Z,56.39
2023-10-16T12:10:10.722Z,56.83
2023-10-16T12:11:10.703Z,54.00
2023-10-16T12:12:10.724Z,55.01
2023-10-16T12:13:10.674Z,48.79
2023-10-16T12:14:10.722Z,57.26
2023-10-16T12:15:10.678Z,62.17
2023-10-16T12:16:20.734Z,49.63
2023-10-16T12:17:12.686Z,53.40
2023-10-16T12:18:10.667Z,58.79
2023-10-16T12:19:10.782Z,54.08
2023-10-16T12:20:10.628Z,45.13
2023-10-16T12:21:44.313Z,58.43
2023-10-16T12:22:10.690Z,55.98
2023-10-16T12:23:12.020Z,57.01
2023-10-16T12:24:10.639Z,57.15
2023-10-16T12:25:10.648Z,50.95
2023-10-16T12:26:10.591Z,49.69
2023-10-16T12:27:10.582Z,56.92
2023-10-16T12:28:11.296Z,56.87
2023-10-16T12:29:10.589Z,50.84
2023-10-16T12:30:10.565Z,54.17
2023-10-16T12:31:11.413Z,58.70
2023-10-16T12:32:11.285Z,52.03
2023-10-16T12:33:11.586Z,52.48
2023-10-16T12:34:10.657Z,58.56
2023-10-16T12:35:10.635Z,59.80
2023-10-16T12:36:10.506Z,56.46
2023-10-16T12:37:10.787Z,58.70
2023-10-16T12:38:10.510Z,56.55
2023-10-16T12:39:10.504Z,41.97
2023-10-16T12:40:10.566Z,57.36
2023-10-16T12:41:10.483Z,54.30
2023-10-16T12:42:10.470Z,52.91
2023-10-16T12:43:11.458Z,45.36
2023-10-16T12:44:10.465Z,52.33
2023-10-16T12:45:10.544Z,57.94
2023-10-16T12:46:10.519Z,56.34
2023-10-16T12:47:10.447Z,55.70
2023-10-16T12:48:10.470Z,55.82
2023-10-16T12:49:10.438Z,53.01
2023-10-16T12:50:10.434Z,56.62
2023-10-16T12:51:12.156Z,54.26
2023-10-16T12:52:11.544Z,56.46
2023-10-16T12:53:10.389Z,57.23
2023-10-16T12:54:10.400Z,47.41
2023-10-16T12:55:10.691Z,47.78
2023-10-16T12:56:10.391Z,59.23
2023-10-16T12:57:10.362Z,59.43
2023-10-16T12:58:10.350Z,42.10
2023-10-16T12:59:10.378Z,55.54
2023-10-16T13:00:10.352Z,56.02
2023-10-16T13:01:10.420Z,53.03
2023-10-16T13:02:10.347Z,51.94
2023-10-16T13:03:10.415Z,55.35
2023-10-16T13:04:10.336Z,56.75
2023-10-16T13:05:10.889Z,50.03
2023-10-16T13:06:10.310Z,56.19
2023-10-16T13:07:14.506Z,55.22
2023-10-16T13:08:11.330Z,56.92
2023-10-16T13:09:10.253Z,57.65
2023-10-16T13:10:10.348Z,57.28
2023-10-16T13:11:10.308Z,55.84
2023-10-16T13:12:10.286Z,57.49
2023-10-16T13:13:10.288Z,58.85
2023-10-16T13:14:10.221Z,43.34
2023-10-16T13:15:10.230Z,55.70
2023-10-16T13:16:10.237Z,55.79
2023-10-16T13:17:10.247Z,58.27
2023-10-16T13:18:10.207Z,46.07
2023-10-16T13:19:10.230Z,54.35
2023-10-16T13:20:10.200Z,58.36
2023-10-16T13:21:10.157Z,59.24
2023-10-16T13:22:10.193Z,52.14
2023-10-16T13:23:10.264Z,53.32
2023-10-16T13:24:10.166Z,53.03
2023-10-16T13:25:10.209Z,57.57
2023-10-16T13:26:10.158Z,54.85
2023-10-16T13:27:10.118Z,48.84
2023-10-16T13:28:10.301Z,58.15
2023-10-16T13:29:10.120Z,58.37
2023-10-16T13:30:10.110Z,56.10